| time (UTC) | temp C | wind direction | speed KPH | gust KPH | rain 1hr cm | rain 24hr cm | rain mn cm | humidity % | barometer mb |
| 20260507231549 | 10 | 298 | 1.6 | 4.8 | 0.08 | 0.94 | 0.08 | 91 | 1014.9 |
| 20260507230048 | 10 | 299 | 3.2 | 4.8 | 0.08 | 0.94 | 0.08 | 91 | 1015.0 |
| 20260507224554 | 10 | 299 | 0.0 | 4.8 | 0.08 | 0.94 | 0.08 | 91 | 1014.9 |
| 20260507223048 | 10 | 305 | 1.6 | 4.8 | 0.03 | 0.91 | 0.03 | 91 | 1014.9 |
| 20260507221552 | 10 | 318 | 0.0 | 3.2 | 0.00 | 0.89 | 0.00 | 91 | 1014.8 |
| 20260507220052 | 10 | 0 | 0.0 | 1.6 | 0.00 | 0.86 | 0.00 | 91 | 1014.8 |
| 20260507214551 | 10 | 0 | 0.0 | 0.0 | 0.00 | 0.86 | 0.86 | 91 | 1014.7 |
| 20260507213048 | 10 | 0 | 0.0 | 1.6 | 0.00 | 0.86 | 0.86 | 91 | 1014.7 |
| 20260507211547 | 10 | 0 | 0.0 | 4.8 | 0.00 | 0.86 | 0.86 | 90 | 1014.7 |
| 20260507210045 | 10 | 0 | 0.0 | 0.0 | 0.03 | 0.86 | 0.86 | 90 | 1014.6 |
| 20260507204553 | 11 | 318 | 0.0 | 3.2 | 0.05 | 0.86 | 0.86 | 90 | 1014.6 |
| 20260507203045 | 11 | 0 | 0.0 | 3.2 | 0.05 | 0.84 | 0.84 | 90 | 1014.5 |
| 20260507201553 | 11 | 0 | 0.0 | 3.2 | 0.05 | 0.84 | 0.84 | 90 | 1014.3 |
| 20260507200045 | 11 | 0 | 0.0 | 3.2 | 0.03 | 0.84 | 0.84 | 90 | 1014.4 |
| 20260507194544 | 11 | 318 | 4.8 | 6.4 | 0.00 | 0.81 | 0.81 | 90 | 1014.4 |
| 20260507193047 | 11 | 36 | 0.0 | 3.2 | 0.00 | 0.79 | 0.79 | 90 | 1014.5 |
| 20260507191550 | 11 | 0 | 0.0 | 4.8 | 0.00 | 0.79 | 0.79 | 90 | 1014.2 |
| 20260507190052 | 11 | 49 | 1.6 | 4.8 | 0.05 | 0.79 | 0.79 | 90 | 1014.0 |
| 20260507184550 | 11 | 49 | 1.6 | 4.8 | 0.10 | 0.79 | 0.79 | 90 | 1014.0 |
| 20260507183051 | 11 | 49 | 3.2 | 9.7 | 0.13 | 0.76 | 0.76 | 90 | 1013.7 |
| 20260507181601 | 11 | 15 | 0.0 | 3.2 | 0.18 | 0.76 | 0.76 | 90 | 1013.8 |
| 20260507180043 | 11 | 15 | 1.6 | 4.8 | 0.18 | 0.74 | 0.74 | 90 | 1013.7 |
| 20260507174555 | 11 | 0 | 1.6 | 8.0 | 0.15 | 0.66 | 0.66 | 89 | 1013.6 |
| 20260507173048 | 11 | 257 | 3.2 | 8.0 | 0.10 | 0.64 | 0.64 | 89 | 1013.5 |
| 20260507171553 | 11 | 0 | 0.0 | 11.3 | 0.08 | 0.56 | 0.56 | 89 | 1013.4 |
| 20260507170050 | 11 | 302 | 3.2 | 8.0 | 0.18 | 0.53 | 0.53 | 89 | 1013.2 |
| 20260507164542 | 11 | 229 | 0.0 | 6.4 | 0.36 | 0.51 | 0.51 | 88 | 1013.2 |
| 20260507163043 | 11 | 230 | 8.0 | 11.3 | 0.38 | 0.51 | 0.51 | 88 | 1013.1 |
| 20260507161550 | 11 | 248 | 6.4 | 12.9 | 0.33 | 0.46 | 0.46 | 87 | 1013.0 |
| 20260507160047 | 12 | 242 | 14.5 | 20.9 | 0.20 | 0.33 | 0.33 | 86 | 1013.2 |
| 20260507154549 | 12 | 271 | 22.5 | 35.4 | 0.00 | 0.13 | 0.13 | 82 | 1013.0 |
| 20260507153052 | 14 | 255 | 20.9 | 27.4 | 0.00 | 0.10 | 0.10 | 79 | 1012.6 |
| 20260507151543 | 15 | 251 | 14.5 | 20.9 | 0.00 | 0.10 | 0.10 | 78 | 1012.6 |
| 20260507150043 | 15 | 238 | 14.5 | 20.9 | 0.00 | 0.10 | 0.10 | 79 | 1012.7 |
| 20260507144548 | 15 | 218 | 9.7 | 16.1 | 0.05 | 0.10 | 0.10 | 81 | 1012.6 |
| 20260507143048 | 14 | 196 | 4.8 | 12.9 | 0.05 | 0.10 | 0.10 | 81 | 1012.8 |
| 20260507141544 | 13 | 235 | 3.2 | 17.7 | 0.05 | 0.10 | 0.10 | 79 | 1012.7 |
| 20260507140049 | 15 | 219 | 11.3 | 24.1 | 0.03 | 0.08 | 0.08 | 74 | 1012.5 |
| 20260507134544 | 16 | 219 | 20.9 | 33.8 | 0.00 | 0.05 | 0.05 | 68 | 1012.5 |
| 20260507133052 | 17 | 247 | 17.7 | 24.1 | 0.00 | 0.05 | 0.05 | 67 | 1012.2 |
| 20260507131600 | 17 | 240 | 12.9 | 22.5 | 0.00 | 0.05 | 0.05 | 67 | 1012.4 |
| 20260507130105 | 17 | 245 | 20.9 | 32.2 | 0.00 | 0.05 | 0.05 | 69 | 1012.4 |
| 20260507124552 | 18 | 233 | 12.9 | 24.1 | 0.00 | 0.05 | 0.05 | 65 | 1012.3 |
| 20260507123043 | 18 | 128 | 14.5 | 25.7 | 0.00 | 0.05 | 0.05 | 63 | 1012.0 |
| 20260507121602 | 18 | 205 | 14.5 | 25.7 | 0.00 | 0.05 | 0.05 | 64 | 1012.2 |
| 20260507120055 | 18 | 188 | 12.9 | 24.1 | 0.00 | 0.05 | 0.05 | 65 | 1012.5 |
| 20260507114604 | 17 | 167 | 14.5 | 27.4 | 0.00 | 0.05 | 0.05 | 66 | 1012.3 |
| 20260507113045 | 18 | 159 | 14.5 | 27.4 | 0.00 | 0.05 | 0.05 | 65 | 1012.5 |
| 20260507111544 | 18 | 217 | 20.9 | 32.2 | 0.00 | 0.05 | 0.05 | 64 | 1012.5 |
| 20260507110043 | 18 | 219 | 11.3 | 24.1 | 0.00 | 0.05 | 0.05 | 61 | 1012.2 |
| 20260507104543 | 19 | 192 | 17.7 | 29.0 | 0.00 | 0.05 | 0.05 | 60 | 1012.3 |
| 20260507103043 | 18 | 199 | 17.7 | 27.4 | 0.00 | 0.05 | 0.05 | 60 | 1012.1 |
| 20260507101546 | 19 | 214 | 12.9 | 24.1 | 0.00 | 0.05 | 0.05 | 60 | 1012.1 |
| 20260507100044 | 19 | 206 | 16.1 | 32.2 | 0.00 | 0.05 | 0.05 | 61 | 1012.1 |
| 20260507094544 | 18 | 200 | 14.5 | 32.2 | 0.00 | 0.05 | 0.05 | 63 | 1011.9 |
| 20260507093049 | 18 | 195 | 16.1 | 25.7 | 0.00 | 0.05 | 0.05 | 62 | 1012.0 |
| 20260507091552 | 17 | 213 | 22.5 | 32.2 | 0.00 | 0.05 | 0.05 | 61 | 1011.9 |
| 20260507090047 | 18 | 208 | 19.3 | 33.8 | 0.00 | 0.05 | 0.05 | 62 | 1011.7 |
| 20260507084547 | 18 | 217 | 20.9 | 30.6 | 0.00 | 0.05 | 0.05 | 62 | 1011.4 |
| 20260507083044 | 18 | 245 | 25.7 | 33.8 | 0.00 | 0.05 | 0.05 | 62 | 1011.4 |
| 20260507081548 | 18 | 240 | 24.1 | 33.8 | 0.00 | 0.05 | 0.05 | 63 | 1011.3 |
| 20260507080051 | 17 | 245 | 22.5 | 35.4 | 0.00 | 0.05 | 0.05 | 64 | 1011.5 |
| 20260507074600 | 17 | 216 | 22.5 | 33.8 | 0.00 | 0.05 | 0.05 | 64 | 1011.4 |
| 20260507073043 | 17 | 236 | 20.9 | 27.4 | 0.00 | 0.05 | 0.05 | 65 | 1011.3 |
| 20260507071543 | 17 | 242 | 12.9 | 22.5 | 0.00 | 0.05 | 0.05 | 69 | 1011.2 |
| 20260507070043 | 16 | 233 | 16.1 | 25.7 | 0.00 | 0.05 | 0.05 | 72 | 1011.2 |
| 20260507064550 | 15 | 234 | 14.5 | 27.4 | 0.00 | 0.05 | 0.05 | 73 | 1011.1 |
| 20260507063054 | 15 | 229 | 14.5 | 25.7 | 0.00 | 0.05 | 0.05 | 74 | 1011.0 |
| 20260507061544 | 15 | 222 | 12.9 | 22.5 | 0.00 | 0.05 | 0.05 | 77 | 1010.8 |
| 20260507060045 | 14 | 224 | 19.3 | 27.4 | 0.00 | 0.05 | 0.05 | 76 | 1010.9 |
| 20260507054604 | 14 | 221 | 12.9 | 22.5 | 0.00 | 0.05 | 0.05 | 77 | 1010.9 |
| 20260507053052 | 13 | 215 | 12.9 | 22.5 | 0.00 | 0.05 | 0.05 | 77 | 1010.6 |
| 20260507051542 | 13 | 217 | 12.9 | 27.4 | 0.00 | 0.05 | 0.05 | 77 | 1010.6 |
| 20260507050054 | 13 | 228 | 16.1 | 25.7 | 0.00 | 0.05 | 0.05 | 78 | 1010.6 |
| 20260507044549 | 13 | 211 | 14.5 | 25.7 | 0.00 | 0.05 | 0.05 | 79 | 1010.3 |
| 20260507043050 | 12 | 205 | 12.9 | 22.5 | 0.00 | 0.05 | 0.05 | 80 | 1010.2 |
| 20260507041548 | 12 | 219 | 12.9 | 19.3 | 0.00 | 0.05 | 0.05 | 80 | 1010.2 |
| 20260507040051 | 12 | 212 | 12.9 | 19.3 | 0.00 | 0.05 | 0.05 | 81 | 1010.2 |
| 20260507034555 | 12 | 238 | 9.7 | 16.1 | 0.00 | 0.05 | 0.05 | 81 | 1010.3 |
| 20260507033051 | 12 | 219 | 9.7 | 14.5 | 0.00 | 0.05 | 0.05 | 81 | 1010.4 |
| 20260507031605 | 12 | 214 | 11.3 | 17.7 | 0.00 | 0.05 | 0.05 | 80 | 1010.4 |
| 20260507030055 | 12 | 219 | 9.7 | 14.5 | 0.00 | 0.05 | 0.05 | 81 | 1010.6 |
| 20260507024553 | 12 | 215 | 9.7 | 16.1 | 0.00 | 0.05 | 0.05 | 80 | 1010.7 |
| 20260507023054 | 13 | 238 | 9.7 | 17.7 | 0.00 | 0.05 | 0.05 | 80 | 1010.8 |
| 20260507021547 | 13 | 231 | 11.3 | 17.7 | 0.00 | 0.05 | 0.05 | 81 | 1010.8 |
| 20260507020050 | 13 | 221 | 11.3 | 19.3 | 0.00 | 0.05 | 0.05 | 81 | 1011.0 |
| 20260507014550 | 13 | 213 | 14.5 | 24.1 | 0.00 | 0.05 | 0.05 | 82 | 1010.9 |
| 20260507013045 | 13 | 215 | 14.5 | 24.1 | 0.00 | 0.05 | 0.05 | 84 | 1010.8 |
| 20260507011549 | 13 | 215 | 12.9 | 24.1 | 0.00 | 0.05 | 0.05 | 84 | 1010.7 |
| 20260507010044 | 13 | 190 | 12.9 | 24.1 | 0.00 | 0.05 | 0.05 | 85 | 1010.1 |
| 20260507004544 | 12 | 193 | 12.9 | 17.7 | 0.00 | 0.05 | 0.05 | 84 | 1009.7 |
| 20260507003051 | 12 | 216 | 12.9 | 22.5 | 0.00 | 0.05 | 0.05 | 84 | 1009.9 |
| 20260507001551 | 13 | 216 | 16.1 | 24.1 | 0.00 | 0.05 | 0.05 | 84 | 1010.3 |
| 20260507000051 | 12 | 236 | 17.7 | 29.0 | 0.00 | 0.05 | 0.05 | 85 | 1010.2 |
| 20260506234550 | 13 | 233 | 22.5 | 30.6 | 0.05 | 0.05 | 0.05 | 84 | 1010.3 |
| 20260506233108 | 13 | 223 | 12.9 | 22.5 | 0.05 | 0.05 | 0.05 | 84 | 1010.6 |